createdAt,value
2023-03-29T00:02:13.442Z,-2.10
2023-03-29T00:05:02.264Z,-2.11
2023-03-29T00:07:54.524Z,-2.10
2023-03-29T00:10:42.430Z,-2.19
2023-03-29T00:13:29.900Z,-2.20
2023-03-29T00:16:17.606Z,-2.20
2023-03-29T00:19:06.361Z,-2.14
2023-03-29T00:21:53.396Z,-2.23
2023-03-29T00:24:40.608Z,-2.22
2023-03-29T00:27:27.752Z,-2.29
2023-03-29T00:30:15.440Z,-2.26
2023-03-29T00:33:02.564Z,-2.27
2023-03-29T00:35:53.476Z,-2.23
2023-03-29T00:38:40.866Z,-2.27
2023-03-29T00:41:28.139Z,-2.33
2023-03-29T00:44:52.917Z,-2.29
2023-03-29T00:47:43.849Z,-2.32
2023-03-29T00:50:36.535Z,-2.36
2023-03-29T00:53:55.692Z,-2.46
2023-03-29T00:56:46.716Z,-2.56
2023-03-29T00:59:35.742Z,-2.64
2023-03-29T01:02:27.582Z,-2.60
2023-03-29T01:05:24.079Z,-2.64
2023-03-29T01:08:27.756Z,-2.71
2023-03-29T01:11:22.908Z,-2.77
2023-03-29T01:14:30.007Z,-2.75
2023-03-29T01:17:21.901Z,-2.82
2023-03-29T01:20:20.366Z,-2.87
2023-03-29T01:23:14.178Z,-2.85
2023-03-29T01:26:20.346Z,-2.83
2023-03-29T01:29:11.471Z,-2.89
2023-03-29T01:32:07.176Z,-2.93
2023-03-29T01:35:02.717Z,-2.93
2023-03-29T01:37:57.659Z,-2.94
2023-03-29T01:40:44.719Z,-2.97
2023-03-29T01:43:38.740Z,-2.96
2023-03-29T01:46:40.084Z,-2.84
2023-03-29T01:49:42.369Z,-2.82
2023-03-29T01:52:38.258Z,-2.82
2023-03-29T01:55:32.518Z,-2.87
2023-03-29T01:58:23.817Z,-2.69
2023-03-29T02:01:17.766Z,-2.67
2023-03-29T02:04:10.647Z,-2.79
2023-03-29T02:07:00.811Z,-2.80
2023-03-29T02:09:49.064Z,-2.65
2023-03-29T02:12:38.376Z,-2.73
2023-03-29T02:15:25.650Z,-2.73
2023-03-29T02:18:16.585Z,-2.70
2023-03-29T02:21:04.113Z,-2.74
2023-03-29T02:23:54.851Z,-2.69
2023-03-29T02:26:42.240Z,-2.76
2023-03-29T02:29:29.740Z,-2.77
2023-03-29T02:32:25.192Z,-2.72
2023-03-29T02:35:17.158Z,-2.74
2023-03-29T02:38:09.022Z,-2.69
2023-03-29T02:40:58.351Z,-2.69
2023-03-29T02:43:47.780Z,-2.57
2023-03-29T02:46:37.971Z,-2.64
2023-03-29T02:49:25.379Z,-2.63
2023-03-29T02:52:17.526Z,-2.69
2023-03-29T02:55:08.258Z,-2.56
2023-03-29T02:57:55.288Z,-2.59
2023-03-29T03:00:51.225Z,-2.53
2023-03-29T03:03:39.104Z,-2.31
2023-03-29T03:06:26.266Z,-2.41
2023-03-29T03:09:14.721Z,-2.38
2023-03-29T03:12:02.052Z,-2.35
2023-03-29T03:14:49.610Z,-2.30
2023-03-29T03:17:40.181Z,-2.21
2023-03-29T03:20:27.337Z,-2.29
2023-03-29T03:23:14.456Z,-2.31
2023-03-29T03:26:01.679Z,-2.14
2023-03-29T03:28:49.042Z,-2.05
2023-03-29T03:31:36.144Z,-2.21
2023-03-29T03:34:23.336Z,-2.19
2023-03-29T03:37:12.105Z,-2.07
2023-03-29T03:39:59.570Z,-2.07
2023-03-29T03:42:46.967Z,-2.17
2023-03-29T03:45:34.423Z,-2.07
2023-03-29T03:48:22.639Z,-2.17
2023-03-29T03:51:10.281Z,-2.13
2023-03-29T03:53:57.526Z,-1.90
2023-03-29T03:56:44.707Z,-2.12
2023-03-29T03:59:31.845Z,-2.08
2023-03-29T04:02:20.405Z,-2.02
2023-03-29T04:05:08.840Z,-1.99
2023-03-29T04:07:56.296Z,-1.80
2023-03-29T04:10:51.468Z,-1.73
2023-03-29T04:13:38.519Z,-1.95
2023-03-29T04:16:25.814Z,-1.91
2023-03-29T04:19:13.784Z,-1.72
2023-03-29T04:22:00.844Z,-1.79
2023-03-29T04:24:47.891Z,-1.68
2023-03-29T04:27:35.010Z,-1.80
2023-03-29T04:30:22.317Z,-1.85
2023-03-29T04:33:10.477Z,-1.86
2023-03-29T04:35:57.663Z,-1.60
2023-03-29T04:38:47.808Z,-1.62
2023-03-29T04:41:35.469Z,-1.72
2023-03-29T04:44:22.476Z,-1.82
2023-03-29T04:47:13.893Z,-1.80
2023-03-29T04:50:01.737Z,-1.48
2023-03-29T04:52:50.886Z,-1.45
2023-03-29T04:55:38.047Z,-1.53
2023-03-29T04:58:31.461Z,-1.63
2023-03-29T05:01:19.391Z,-1.48
2023-03-29T05:04:06.556Z,-1.60
2023-03-29T05:06:54.166Z,-1.55
2023-03-29T05:09:41.917Z,-1.46
2023-03-29T05:12:29.025Z,-1.45
2023-03-29T05:15:16.233Z,-1.28
2023-03-29T05:18:03.990Z,-1.17
2023-03-29T05:20:53.232Z,-1.24
2023-03-29T05:23:40.359Z,-1.20
2023-03-29T05:26:28.097Z,-0.95
2023-03-29T05:29:15.130Z,-0.98
2023-03-29T05:32:02.514Z,-1.02
2023-03-29T05:34:49.569Z,-1.04
2023-03-29T05:37:37.098Z,-0.75
2023-03-29T05:40:27.087Z,-0.87
2023-03-29T05:43:14.512Z,-0.64
2023-03-29T05:46:01.614Z,-0.71
2023-03-29T05:48:49.020Z,-0.50
2023-03-29T05:51:36.524Z,-0.60
2023-03-29T05:54:24.614Z,-0.58
2023-03-29T05:57:12.158Z,-0.56
2023-03-29T05:59:59.290Z,-0.30
2023-03-29T06:02:47.267Z,-0.20
2023-03-29T06:05:35.798Z,-0.17
2023-03-29T06:08:23.492Z,-0.22
2023-03-29T06:11:12.426Z,-0.28
2023-03-29T06:13:59.471Z,-0.15
2023-03-29T06:16:47.262Z,-0.13
2023-03-29T06:19:34.346Z,-0.07
2023-03-29T06:22:21.443Z,-0.07
2023-03-29T06:25:11.094Z,0.18
2023-03-29T06:27:58.155Z,0.29
2023-03-29T06:30:49.443Z,0.19
2023-03-29T06:33:38.267Z,0.42
2023-03-29T06:36:26.012Z,0.57
2023-03-29T06:39:13.306Z,0.81
2023-03-29T06:42:05.225Z,0.81
2023-03-29T06:44:57.322Z,1.06
2023-03-29T06:47:44.439Z,1.09
2023-03-29T06:50:31.957Z,1.37
2023-03-29T06:53:19.157Z,1.49
2023-03-29T06:56:09.646Z,1.64
2023-03-29T06:58:56.906Z,1.65
2023-03-29T07:01:45.190Z,1.79
2023-03-29T07:04:32.582Z,1.90
2023-03-29T07:07:22.730Z,1.87
2023-03-29T07:10:10.028Z,1.99
2023-03-29T07:12:57.444Z,2.12
2023-03-29T07:15:45.089Z,2.33
2023-03-29T07:18:32.289Z,2.51
2023-03-29T07:21:20.582Z,2.76
2023-03-29T07:24:10.329Z,3.02
2023-03-29T07:27:04.210Z,3.17
2023-03-29T07:29:52.329Z,3.12
2023-03-29T07:32:40.859Z,3.16
2023-03-29T07:35:28.269Z,3.11
2023-03-29T07:38:15.796Z,3.28
2023-03-29T07:41:08.209Z,3.40
2023-03-29T07:43:55.992Z,3.45
2023-03-29T07:46:43.444Z,3.45
2023-03-29T07:49:31.268Z,3.31
2023-03-29T07:52:18.347Z,3.44
2023-03-29T07:55:07.305Z,3.27
2023-03-29T07:57:54.910Z,3.31
2023-03-29T08:00:43.676Z,3.26
2023-03-29T08:03:30.827Z,3.03
2023-03-29T08:06:17.964Z,2.85
2023-03-29T08:09:05.342Z,2.76
2023-03-29T08:11:52.448Z,2.71
2023-03-29T08:14:39.539Z,2.65
2023-03-29T08:17:26.680Z,2.90
2023-03-29T08:20:18.233Z,3.28
2023-03-29T08:23:05.364Z,3.49
2023-03-29T08:25:52.495Z,3.26
2023-03-29T08:28:39.647Z,2.85
2023-03-29T08:31:27.302Z,3.13
2023-03-29T08:34:14.419Z,2.89
2023-03-29T08:37:02.197Z,2.83
2023-03-29T08:39:49.578Z,2.75
2023-03-29T08:43:05.500Z,2.94
2023-03-29T08:45:55.621Z,3.19
2023-03-29T08:48:46.084Z,3.35
2023-03-29T08:51:38.777Z,3.15
2023-03-29T08:54:29.347Z,3.17
2023-03-29T08:57:22.995Z,3.36
2023-03-29T09:00:21.789Z,3.35
2023-03-29T09:03:35.028Z,3.72
2023-03-29T09:06:22.375Z,3.87
2023-03-29T09:09:19.978Z,3.93
2023-03-29T09:12:12.935Z,3.83
2023-03-29T09:15:09.212Z,3.97
2023-03-29T09:17:56.371Z,4.19
2023-03-29T09:21:11.379Z,3.88
2023-03-29T09:24:01.384Z,4.00
2023-03-29T09:26:54.814Z,4.21
2023-03-29T09:29:56.449Z,4.48
2023-03-29T09:32:49.114Z,4.48
2023-03-29T09:35:41.339Z,4.39
2023-03-29T09:38:31.351Z,4.27
2023-03-29T09:41:26.771Z,4.25
2023-03-29T09:44:30.371Z,4.69
2023-03-29T09:47:30.301Z,4.70
2023-03-29T09:50:31.330Z,4.76
2023-03-29T09:53:21.850Z,4.55
2023-03-29T09:56:09.367Z,4.72
2023-03-29T09:58:56.615Z,4.70
2023-03-29T10:01:46.697Z,4.91
2023-03-29T10:04:33.794Z,5.04
2023-03-29T10:07:21.289Z,5.18
2023-03-29T10:10:10.795Z,5.37
2023-03-29T10:13:01.838Z,5.19
2023-03-29T10:16:05.204Z,5.29
2023-03-29T10:18:54.679Z,5.68
2023-03-29T10:21:42.462Z,5.76
2023-03-29T10:24:29.488Z,5.92
2023-03-29T10:27:24.090Z,6.04
2023-03-29T10:30:18.917Z,5.94
2023-03-29T10:33:16.182Z,5.80
2023-03-29T10:36:06.957Z,5.44
2023-03-29T10:38:58.639Z,5.52
2023-03-29T10:41:49.864Z,5.01
2023-03-29T10:44:36.990Z,4.72
2023-03-29T10:47:25.110Z,4.81
2023-03-29T10:50:16.152Z,5.09
2023-03-29T10:53:06.416Z,4.67
2023-03-29T10:56:15.522Z,4.79
2023-03-29T10:59:44.204Z,4.76
2023-03-29T11:03:08.896Z,4.91
2023-03-29T11:06:18.316Z,5.04
2023-03-29T11:09:26.790Z,5.18
2023-03-29T11:13:05.194Z,4.89
2023-03-29T11:16:01.800Z,5.12
2023-03-29T11:19:04.354Z,5.21
2023-03-29T11:22:17.046Z,5.04
2023-03-29T11:25:27.735Z,4.94
2023-03-29T11:28:24.371Z,5.09
2023-03-29T11:31:32.872Z,5.29
2023-03-29T11:34:36.834Z,5.36
2023-03-29T11:37:42.225Z,5.68
2023-03-29T11:41:17.830Z,5.90
2023-03-29T11:44:21.276Z,5.82
2023-03-29T11:47:20.591Z,5.77
2023-03-29T11:50:19.835Z,5.64
2023-03-29T11:53:15.007Z,5.84
2023-03-29T11:56:10.605Z,5.77
2023-03-29T11:59:08.273Z,5.99
2023-03-29T12:01:59.974Z,6.30
2023-03-29T12:04:51.698Z,6.27
2023-03-29T12:07:54.539Z,6.60
2023-03-29T12:10:48.235Z,6.67
2023-03-29T12:13:42.772Z,6.93
2023-03-29T12:16:29.800Z,7.12
2023-03-29T12:19:26.466Z,7.18
2023-03-29T12:22:13.548Z,7.07
2023-03-29T12:25:03.408Z,7.15
2023-03-29T12:28:05.414Z,7.14
2023-03-29T12:31:23.898Z,7.23
2023-03-29T12:34:35.117Z,7.16
2023-03-29T12:37:36.255Z,7.16
2023-03-29T12:40:27.767Z,7.54
2023-03-29T12:43:25.114Z,7.94
2023-03-29T12:46:27.694Z,8.02
2023-03-29T12:49:27.260Z,7.93
2023-03-29T12:52:23.467Z,8.29
2023-03-29T12:55:32.375Z,8.38
2023-03-29T12:58:40.586Z,8.43
2023-03-29T13:01:34.154Z,8.56
2023-03-29T13:04:38.044Z,8.44
2023-03-29T13:07:28.071Z,8.47
2023-03-29T13:10:35.702Z,8.24
2023-03-29T13:13:29.823Z,8.29
2023-03-29T13:16:21.781Z,8.18
2023-03-29T13:19:36.158Z,8.01
2023-03-29T13:23:10.959Z,8.06
2023-03-29T13:26:11.530Z,8.66
2023-03-29T13:29:02.582Z,8.72
2023-03-29T13:32:05.572Z,8.61
2023-03-29T13:35:11.825Z,8.42
2023-03-29T13:38:31.917Z,8.48
2023-03-29T13:41:24.982Z,8.91
2023-03-29T13:44:39.350Z,9.07
2023-03-29T13:47:27.815Z,9.33
2023-03-29T13:50:19.740Z,9.12
2023-03-29T13:53:15.844Z,9.20
2023-03-29T13:56:05.821Z,9.40
2023-03-29T13:59:05.854Z,9.42
2023-03-29T14:01:58.141Z,9.23
2023-03-29T14:04:48.658Z,9.09
2023-03-29T14:07:39.468Z,9.10
2023-03-29T14:10:32.430Z,9.56
2023-03-29T14:13:23.302Z,9.55
2023-03-29T14:16:12.089Z,9.13
2023-03-29T14:19:02.419Z,9.12
2023-03-29T14:21:52.383Z,9.13
2023-03-29T14:24:49.855Z,9.01
2023-03-29T14:27:37.588Z,8.91
2023-03-29T14:30:29.717Z,9.36
2023-03-29T14:33:31.354Z,9.53
2023-03-29T14:36:18.693Z,9.05
2023-03-29T14:39:18.830Z,9.31
2023-03-29T14:42:10.989Z,9.70
2023-03-29T14:45:04.381Z,9.46
2023-03-29T14:47:52.147Z,9.20
2023-03-29T14:50:40.228Z,9.49
2023-03-29T14:53:30.799Z,9.26
2023-03-29T14:56:21.424Z,9.13
2023-03-29T14:59:23.979Z,9.51
2023-03-29T15:02:32.586Z,9.54
2023-03-29T15:05:35.428Z,9.38
2023-03-29T15:08:37.965Z,9.75
2023-03-29T15:11:30.862Z,9.92
2023-03-29T15:14:20.130Z,10.16
2023-03-29T15:17:23.220Z,10.34
2023-03-29T15:20:24.801Z,10.52
2023-03-29T15:23:14.951Z,10.47
2023-03-29T15:26:20.901Z,9.93
2023-03-29T15:29:14.901Z,10.26
2023-03-29T15:32:02.509Z,10.25
2023-03-29T15:35:02.249Z,9.99
2023-03-29T15:37:50.349Z,9.69
2023-03-29T15:40:37.656Z,9.73
2023-03-29T15:43:25.875Z,9.65
2023-03-29T15:46:16.648Z,9.71
2023-03-29T15:49:05.179Z,9.33
2023-03-29T15:51:54.124Z,9.42
2023-03-29T15:54:41.616Z,9.12
2023-03-29T15:57:29.153Z,9.39
2023-03-29T16:00:18.988Z,9.40
2023-03-29T16:03:07.108Z,9.39
2023-03-29T16:05:56.974Z,9.00
2023-03-29T16:08:44.124Z,8.96
2023-03-29T16:11:31.313Z,8.90
2023-03-29T16:14:27.457Z,8.98
2023-03-29T16:17:16.091Z,8.93
2023-03-29T16:20:05.281Z,8.86
2023-03-29T16:22:54.330Z,8.68
2023-03-29T16:25:41.620Z,8.62
2023-03-29T16:28:28.778Z,8.62
2023-03-29T16:31:15.984Z,8.59
2023-03-29T16:34:04.391Z,8.57
2023-03-29T16:36:53.129Z,8.55
2023-03-29T16:39:40.648Z,8.48
2023-03-29T16:42:27.836Z,8.58
2023-03-29T16:45:15.564Z,8.40
2023-03-29T16:48:02.884Z,8.35
2023-03-29T16:50:50.279Z,8.37
2023-03-29T16:53:38.211Z,8.32
2023-03-29T16:56:28.427Z,8.36
2023-03-29T16:59:15.601Z,8.29
2023-03-29T17:02:03.085Z,8.21
2023-03-29T17:04:51.256Z,8.31
2023-03-29T17:07:40.360Z,8.59
2023-03-29T17:10:27.512Z,8.50
2023-03-29T17:13:14.846Z,8.33
2023-03-29T17:16:02.993Z,8.05
2023-03-29T17:18:50.938Z,8.01
2023-03-29T17:21:39.687Z,7.81
2023-03-29T17:24:27.417Z,7.97
2023-03-29T17:27:15.045Z,7.93
2023-03-29T17:30:02.590Z,7.74
2023-03-29T17:32:50.011Z,7.78
2023-03-29T17:35:46.197Z,7.70
2023-03-29T17:38:34.697Z,7.63
2023-03-29T17:41:23.052Z,7.74
2023-03-29T17:44:12.736Z,7.68
2023-03-29T17:47:02.778Z,7.61
2023-03-29T17:49:50.175Z,7.56
2023-03-29T17:52:42.260Z,7.59
2023-03-29T17:55:30.174Z,7.68
2023-03-29T17:58:18.122Z,7.53
2023-03-29T18:01:10.309Z,7.65
2023-03-29T18:03:58.380Z,7.44
2023-03-29T18:06:47.250Z,7.37
2023-03-29T18:09:35.195Z,7.33
2023-03-29T18:12:26.442Z,7.04
2023-03-29T18:15:14.026Z,7.24
2023-03-29T18:18:01.914Z,7.14
2023-03-29T18:20:49.479Z,7.06
2023-03-29T18:23:40.545Z,6.99
2023-03-29T18:26:29.132Z,6.98
2023-03-29T18:29:16.912Z,6.84
2023-03-29T18:32:05.587Z,6.84
2023-03-29T18:34:54.777Z,6.83
2023-03-29T18:37:42.831Z,6.80
2023-03-29T18:40:30.761Z,6.90
2023-03-29T18:43:19.112Z,6.87
2023-03-29T18:46:08.291Z,6.82
2023-03-29T18:48:57.520Z,6.82
2023-03-29T18:51:46.925Z,6.88
2023-03-29T18:54:35.013Z,6.97
2023-03-29T18:57:22.946Z,6.74
2023-03-29T19:00:12.156Z,6.73
2023-03-29T19:02:59.600Z,6.61
2023-03-29T19:05:53.314Z,6.68
2023-03-29T19:08:42.192Z,6.79
2023-03-29T19:11:30.578Z,6.64
2023-03-29T19:14:23.619Z,6.47
2023-03-29T19:17:11.196Z,6.47
2023-03-29T19:19:59.996Z,6.49
2023-03-29T19:22:48.700Z,6.40
2023-03-29T19:25:37.162Z,6.38
2023-03-29T19:28:25.723Z,6.24
2023-03-29T19:31:13.950Z,6.37
2023-03-29T19:34:02.413Z,6.38
2023-03-29T19:36:51.229Z,6.41
2023-03-29T19:39:41.587Z,6.28
2023-03-29T19:42:29.611Z,6.34
2023-03-29T19:45:17.497Z,6.39
2023-03-29T19:48:05.631Z,6.42
2023-03-29T19:50:54.260Z,6.25
2023-03-29T19:53:42.314Z,6.30
2023-03-29T19:56:29.744Z,6.30
2023-03-29T19:59:18.253Z,6.21
2023-03-29T20:02:07.381Z,6.01
2023-03-29T20:04:57.949Z,6.25
2023-03-29T20:07:45.687Z,6.15
2023-03-29T20:10:34.190Z,6.11
2023-03-29T20:13:31.460Z,6.12
2023-03-29T20:16:26.205Z,6.23
2023-03-29T20:19:17.948Z,6.12
2023-03-29T20:22:05.796Z,6.11
2023-03-29T20:24:53.269Z,6.20
2023-03-29T20:27:43.227Z,6.21
2023-03-29T20:30:30.585Z,5.96
2023-03-29T20:33:18.638Z,5.87
2023-03-29T20:36:06.910Z,5.82
2023-03-29T20:38:56.349Z,5.94
2023-03-29T20:41:47.885Z,5.63
2023-03-29T20:44:35.466Z,5.40
2023-03-29T20:47:23.609Z,5.61
2023-03-29T20:50:11.019Z,5.50
2023-03-29T20:53:02.290Z,5.14
2023-03-29T20:55:49.440Z,5.11
2023-03-29T20:58:41.943Z,4.99
2023-03-29T21:01:30.417Z,4.84
2023-03-29T21:04:17.971Z,4.97
2023-03-29T21:07:08.378Z,4.89
2023-03-29T21:09:55.405Z,4.82
2023-03-29T21:12:43.432Z,4.61
2023-03-29T21:15:31.224Z,4.41
2023-03-29T21:18:18.368Z,4.30
2023-03-29T21:21:07.313Z,4.33
2023-03-29T21:23:54.402Z,4.36
2023-03-29T21:26:42.193Z,4.34
2023-03-29T21:29:29.429Z,4.17
2023-03-29T21:32:16.669Z,4.07
2023-03-29T21:35:04.138Z,4.02
2023-03-29T21:37:51.350Z,3.83
2023-03-29T21:40:39.091Z,3.81
2023-03-29T21:43:26.232Z,3.77
2023-03-29T21:46:13.764Z,3.63
2023-03-29T21:49:01.005Z,3.59
2023-03-29T21:51:48.095Z,3.50
2023-03-29T21:54:35.307Z,3.37
2023-03-29T21:57:22.537Z,3.44
2023-03-29T22:00:11.386Z,3.51
2023-03-29T22:02:58.903Z,3.46
2023-03-29T22:05:59.603Z,3.48
2023-03-29T22:08:49.598Z,3.49
2023-03-29T22:11:38.699Z,3.38
2023-03-29T22:14:25.753Z,3.38
2023-03-29T22:17:13.645Z,3.40
2023-03-29T22:20:00.832Z,3.47
2023-03-29T22:22:50.099Z,3.46
2023-03-29T22:25:37.314Z,3.45
2023-03-29T22:28:24.495Z,3.49
2023-03-29T22:31:15.110Z,3.50
2023-03-29T22:34:02.917Z,3.51
2023-03-29T22:36:49.951Z,3.54
2023-03-29T22:39:37.554Z,3.40
2023-03-29T22:42:24.696Z,3.51
2023-03-29T22:45:11.864Z,3.43
2023-03-29T22:47:58.965Z,3.30
2023-03-29T22:50:47.358Z,3.39
2023-03-29T22:53:34.580Z,3.31
2023-03-29T22:56:22.126Z,3.54
2023-03-29T22:59:09.593Z,3.61
2023-03-29T23:03:31.619Z,3.48
2023-03-29T23:06:19.000Z,3.50
2023-03-29T23:09:06.089Z,3.61
2023-03-29T23:11:53.211Z,3.57
2023-03-29T23:14:42.901Z,3.57
2023-03-29T23:17:30.424Z,3.53
2023-03-29T23:20:17.866Z,3.50
2023-03-29T23:23:04.898Z,3.47
2023-03-29T23:25:53.432Z,3.74
2023-03-29T23:28:41.175Z,3.71
2023-03-29T23:31:28.454Z,3.62
2023-03-29T23:34:15.518Z,3.53
2023-03-29T23:37:02.628Z,3.57
2023-03-29T23:39:49.659Z,3.81
2023-03-29T23:42:37.331Z,3.63
2023-03-29T23:45:26.798Z,3.60
2023-03-29T23:48:14.201Z,3.65
2023-03-29T23:51:02.827Z,3.55
2023-03-29T23:53:50.255Z,3.77
2023-03-29T23:56:37.484Z,3.65
2023-03-29T23:59:29.010Z,3.43
